createdAt,value
2018-03-20T00:02:11.925Z,1.80
2018-03-20T00:04:39.420Z,1.80
2018-03-20T00:07:07.676Z,1.90
2018-03-20T00:09:35.232Z,1.80
2018-03-20T00:12:02.704Z,1.80
2018-03-20T00:14:30.217Z,1.80
2018-03-20T00:16:57.814Z,1.80
2018-03-20T00:19:26.078Z,1.70
2018-03-20T00:21:53.580Z,1.70
2018-03-20T00:24:21.068Z,1.80
2018-03-20T00:26:48.547Z,1.90
2018-03-20T00:29:16.048Z,1.90
2018-03-20T00:31:44.282Z,2.00
2018-03-20T00:34:11.768Z,2.00
2018-03-20T00:36:39.223Z,1.90
2018-03-20T00:39:06.669Z,2.00
2018-03-20T00:41:34.172Z,2.00
2018-03-20T00:44:01.698Z,1.90
2018-03-20T00:46:29.191Z,1.90
2018-03-20T00:48:56.672Z,1.80
2018-03-20T00:51:24.167Z,1.90
2018-03-20T00:53:51.622Z,1.90
2018-03-20T00:56:19.887Z,2.00
2018-03-20T00:58:47.361Z,2.00
2018-03-20T01:01:14.832Z,2.10
2018-03-20T01:03:42.327Z,2.20
2018-03-20T01:06:09.826Z,2.20
2018-03-20T01:08:37.307Z,2.30
2018-03-20T01:11:04.751Z,2.40
2018-03-20T01:13:33.014Z,2.50
2018-03-20T01:16:00.515Z,2.40
2018-03-20T01:18:28.131Z,2.50
2018-03-20T01:20:55.604Z,2.50
2018-03-20T01:23:23.053Z,2.50
2018-03-20T01:25:51.310Z,2.50
2018-03-20T01:28:19.634Z,2.40
2018-03-20T01:30:47.215Z,2.40
2018-03-20T01:33:14.689Z,2.40
2018-03-20T01:35:42.173Z,2.50
2018-03-20T01:38:10.442Z,2.50
2018-03-20T01:40:38.796Z,2.50
2018-03-20T01:43:06.282Z,2.50
2018-03-20T01:45:34.549Z,2.60
2018-03-20T01:48:02.020Z,2.60
2018-03-20T01:50:30.300Z,2.70
2018-03-20T01:53:10.234Z,2.60
2018-03-20T01:55:37.751Z,2.60
2018-03-20T01:58:05.230Z,2.70
2018-03-20T02:00:32.724Z,2.70
2018-03-20T02:03:00.342Z,2.70
2018-03-20T02:05:27.987Z,2.70
2018-03-20T02:07:55.458Z,2.80
2018-03-20T02:10:22.941Z,2.80
2018-03-20T02:12:50.442Z,2.80
2018-03-20T02:15:18.305Z,2.80
2018-03-20T02:17:45.793Z,2.80
2018-03-20T02:20:13.297Z,2.70
2018-03-20T02:22:40.835Z,2.70
2018-03-20T02:25:08.341Z,2.70
2018-03-20T02:27:35.826Z,2.70
2018-03-20T02:30:03.372Z,2.50
2018-03-20T02:32:31.622Z,2.50
2018-03-20T02:34:59.868Z,2.60
2018-03-20T02:37:27.367Z,2.60
2018-03-20T02:39:54.867Z,2.70
2018-03-20T02:42:22.334Z,2.60
2018-03-20T02:44:50.015Z,2.70
2018-03-20T02:47:17.514Z,2.80
2018-03-20T02:49:44.994Z,2.70
2018-03-20T02:52:12.487Z,2.70
2018-03-20T02:54:40.030Z,2.70
2018-03-20T02:57:07.519Z,2.80
2018-03-20T02:59:35.835Z,2.90
2018-03-20T03:02:03.307Z,2.90
2018-03-20T03:04:30.926Z,2.90
2018-03-20T03:06:58.455Z,3.00
2018-03-20T03:09:26.718Z,3.10
2018-03-20T03:11:54.224Z,3.10
2018-03-20T03:14:21.794Z,3.10
2018-03-20T03:16:49.273Z,3.10
2018-03-20T03:19:16.775Z,3.00
2018-03-20T03:21:44.336Z,3.00
2018-03-20T03:24:11.862Z,3.00
2018-03-20T03:26:39.415Z,3.00
2018-03-20T03:29:06.957Z,2.90
2018-03-20T03:31:34.457Z,2.90
2018-03-20T03:34:01.978Z,2.80
2018-03-20T03:36:29.458Z,2.80
2018-03-20T03:38:56.945Z,2.80
2018-03-20T03:41:24.442Z,2.90
2018-03-20T03:43:51.926Z,2.70
2018-03-20T03:46:19.402Z,2.80
2018-03-20T03:48:47.109Z,2.80
2018-03-20T03:51:14.604Z,2.80
2018-03-20T03:53:42.140Z,2.90
2018-03-20T03:56:09.615Z,2.80
2018-03-20T03:58:37.162Z,2.80
2018-03-20T04:01:04.655Z,2.70
2018-03-20T04:03:32.160Z,2.60
2018-03-20T04:05:59.788Z,2.50
2018-03-20T04:08:27.445Z,2.40
2018-03-20T04:10:55.762Z,2.30
2018-03-20T04:13:23.264Z,2.30
2018-03-20T04:15:50.766Z,2.30
2018-03-20T04:18:18.307Z,2.30
2018-03-20T04:20:45.841Z,2.30
2018-03-20T04:23:13.323Z,2.30
2018-03-20T04:25:40.810Z,2.30
2018-03-20T04:28:09.450Z,2.30
2018-03-20T04:30:37.232Z,2.30
2018-03-20T04:33:04.781Z,2.30
2018-03-20T04:35:32.322Z,2.20
2018-03-20T04:37:59.802Z,2.30
2018-03-20T04:40:27.625Z,2.30
2018-03-20T04:42:55.211Z,2.40
2018-03-20T04:45:22.694Z,2.30
2018-03-20T04:47:50.321Z,2.20
2018-03-20T04:50:17.870Z,2.20
2018-03-20T04:52:45.458Z,2.30
2018-03-20T04:55:12.946Z,2.40
2018-03-20T04:57:40.494Z,2.30
2018-03-20T05:00:07.967Z,2.30
2018-03-20T05:02:35.460Z,2.40
2018-03-20T05:05:02.991Z,2.40
2018-03-20T05:07:30.486Z,2.40
2018-03-20T05:09:58.014Z,2.40
2018-03-20T05:12:25.503Z,2.30
2018-03-20T05:14:52.974Z,2.40
2018-03-20T05:17:20.426Z,2.30
2018-03-20T05:23:09.931Z,2.40
2018-03-20T05:25:37.527Z,2.40
2018-03-20T05:28:05.184Z,2.30
2018-03-20T05:30:32.801Z,2.30
2018-03-20T05:33:00.501Z,2.30
2018-03-20T05:35:28.237Z,2.40
2018-03-20T05:37:56.054Z,2.40
2018-03-20T05:40:23.793Z,2.40
2018-03-20T05:42:52.565Z,2.30
2018-03-20T05:45:21.718Z,2.40
2018-03-20T05:47:55.136Z,2.40
2018-03-20T05:50:44.052Z,2.40
2018-03-20T05:53:12.019Z,2.30
2018-03-20T05:55:42.824Z,2.30
2018-03-20T05:58:13.865Z,2.30
2018-03-20T06:00:42.530Z,2.30
2018-03-20T06:03:11.389Z,2.40
2018-03-20T06:05:39.235Z,2.40
2018-03-20T06:08:13.590Z,2.30
2018-03-20T06:10:41.919Z,2.30
2018-03-20T06:13:12.527Z,2.40
2018-03-20T06:15:47.253Z,2.40
2018-03-20T06:18:14.944Z,2.30
2018-03-20T06:20:42.719Z,2.40
2018-03-20T06:23:10.817Z,2.30
2018-03-20T06:25:43.846Z,2.40
2018-03-20T06:28:17.972Z,2.50
2018-03-20T06:30:46.986Z,2.50
2018-03-20T06:33:14.891Z,2.50
2018-03-20T06:35:43.321Z,2.40
2018-03-20T06:38:14.084Z,2.40
2018-03-20T06:40:48.115Z,2.40
2018-03-20T06:43:18.432Z,2.40
2018-03-20T06:45:49.219Z,2.40
2018-03-20T06:48:32.051Z,2.40
2018-03-20T06:50:59.890Z,2.30
2018-03-20T06:53:27.726Z,2.40
2018-03-20T06:55:55.436Z,2.40
2018-03-20T06:58:23.150Z,2.40
2018-03-20T07:00:51.211Z,2.30
2018-03-20T07:03:19.005Z,2.30
2018-03-20T07:05:46.668Z,2.30
2018-03-20T07:08:14.421Z,2.30
2018-03-20T07:10:42.132Z,2.30
2018-03-20T07:13:11.464Z,2.40
2018-03-20T07:15:40.215Z,2.40
2018-03-20T07:18:07.944Z,2.40
2018-03-20T07:20:35.695Z,2.50
2018-03-20T07:23:04.191Z,2.60
2018-03-20T07:25:31.791Z,2.60
2018-03-20T07:27:59.570Z,2.70
2018-03-20T07:30:27.444Z,2.70
2018-03-20T07:32:55.172Z,2.70
2018-03-20T07:35:23.015Z,2.60
2018-03-20T07:37:52.366Z,2.40
2018-03-20T07:40:20.106Z,2.40
2018-03-20T07:42:47.726Z,2.40
2018-03-20T07:45:16.276Z,2.20
2018-03-20T07:47:44.038Z,2.10
2018-03-20T07:50:11.963Z,2.20
2018-03-20T07:52:40.589Z,2.30
2018-03-20T07:55:08.526Z,2.30
2018-03-20T07:57:36.336Z,2.30
2018-03-20T08:00:05.211Z,2.40
2018-03-20T08:02:32.923Z,2.50
2018-03-20T08:05:00.630Z,2.50
2018-03-20T08:07:28.387Z,2.50
2018-03-20T08:09:56.026Z,2.60
2018-03-20T08:12:27.191Z,2.60
2018-03-20T08:14:56.943Z,2.70
2018-03-20T08:17:25.412Z,2.80
2018-03-20T08:19:54.646Z,2.90
2018-03-20T08:22:22.508Z,2.90
2018-03-20T08:24:50.194Z,2.90
2018-03-20T08:27:19.016Z,3.00
2018-03-20T08:29:49.787Z,3.00
2018-03-20T08:32:17.559Z,3.30
2018-03-20T08:34:45.937Z,3.30
2018-03-20T08:37:14.643Z,3.30
2018-03-20T08:39:42.808Z,3.40
2018-03-20T08:42:10.740Z,3.50
2018-03-20T08:44:38.564Z,3.50
2018-03-20T08:47:07.035Z,3.50
2018-03-20T08:49:34.795Z,3.50
2018-03-20T08:52:02.351Z,3.60
2018-03-20T08:54:29.868Z,3.60
2018-03-20T08:56:58.129Z,3.60
2018-03-20T08:59:25.662Z,3.60
2018-03-20T09:01:53.165Z,3.60
2018-03-20T09:04:20.666Z,3.80
2018-03-20T09:06:48.159Z,3.80
2018-03-20T09:09:15.632Z,3.90
2018-03-20T09:11:43.868Z,3.80
2018-03-20T09:14:11.920Z,3.80
2018-03-20T09:16:39.403Z,3.90
2018-03-20T09:19:06.882Z,3.90
2018-03-20T09:21:34.403Z,4.00
2018-03-20T09:24:02.011Z,4.10
2018-03-20T09:26:29.510Z,4.00
2018-03-20T09:28:57.002Z,4.00
2018-03-20T09:31:25.650Z,4.10
2018-03-20T09:33:53.906Z,4.20
2018-03-20T09:36:21.605Z,4.30
2018-03-20T09:38:49.156Z,4.40
2018-03-20T09:41:16.701Z,4.40
2018-03-20T09:43:45.099Z,4.40
2018-03-20T09:46:12.699Z,4.40
2018-03-20T09:48:40.281Z,4.40
2018-03-20T09:51:07.799Z,4.20
2018-03-20T09:53:35.444Z,4.20
2018-03-20T09:56:02.964Z,4.20
2018-03-20T09:58:30.474Z,4.30
2018-03-20T10:00:58.772Z,4.40
2018-03-20T10:03:27.436Z,4.40
2018-03-20T10:05:57.126Z,4.40
2018-03-20T10:08:25.265Z,4.40
2018-03-20T10:10:53.744Z,4.40
2018-03-20T10:13:21.387Z,4.40
2018-03-20T10:15:53.317Z,4.50
2018-03-20T10:18:24.417Z,4.60
2018-03-20T10:23:32.226Z,4.70
2018-03-20T10:28:43.630Z,4.90
2018-03-20T10:31:40.864Z,4.90
2018-03-20T10:34:09.110Z,4.90
2018-03-20T10:36:36.873Z,4.60
2018-03-20T10:39:04.633Z,4.70
2018-03-20T10:41:36.047Z,4.80
2018-03-20T10:44:03.754Z,4.80
2018-03-20T10:46:31.293Z,4.70
2018-03-20T10:48:58.825Z,4.70
2018-03-20T10:51:26.837Z,4.80
2018-03-20T10:53:54.820Z,4.80
2018-03-20T10:56:24.077Z,4.90
2018-03-20T10:58:51.641Z,4.80
2018-03-20T11:01:24.920Z,4.80
2018-03-20T11:03:53.825Z,5.00
2018-03-20T11:06:21.524Z,5.10
2018-03-20T11:08:50.003Z,5.00
2018-03-20T11:11:21.774Z,5.10
2018-03-20T11:13:49.616Z,5.20
2018-03-20T11:16:17.933Z,5.10
2018-03-20T11:18:46.850Z,5.10
2018-03-20T11:21:14.425Z,5.10
2018-03-20T11:23:42.837Z,5.20
2018-03-20T11:26:11.666Z,5.30
2018-03-20T11:28:39.637Z,5.40
2018-03-20T11:31:09.322Z,5.40
2018-03-20T11:33:38.978Z,5.40
2018-03-20T11:36:07.150Z,5.30
2018-03-20T11:38:34.886Z,5.30
2018-03-20T11:41:02.496Z,5.30
2018-03-20T11:43:32.577Z,5.30
2018-03-20T11:46:01.093Z,5.30
2018-03-20T11:48:28.824Z,5.30
2018-03-20T11:50:56.423Z,5.30
2018-03-20T11:53:24.723Z,5.30
2018-03-20T11:55:52.965Z,5.30
2018-03-20T11:58:20.596Z,5.30
2018-03-20T12:00:48.432Z,5.30
2018-03-20T12:03:16.226Z,5.20
2018-03-20T12:05:44.019Z,5.20
2018-03-20T12:08:23.271Z,5.10
2018-03-20T12:10:51.306Z,5.20
2018-03-20T12:13:19.060Z,5.20
2018-03-20T12:15:46.786Z,5.30
2018-03-20T12:18:14.572Z,5.30
2018-03-20T12:20:42.278Z,5.30
2018-03-20T12:23:09.972Z,5.30
2018-03-20T12:25:38.538Z,5.30
2018-03-20T12:28:06.644Z,5.30
2018-03-20T12:30:34.255Z,5.30
2018-03-20T12:33:02.047Z,5.40
2018-03-20T12:35:29.644Z,5.50
2018-03-20T12:37:57.102Z,5.40
2018-03-20T12:40:25.001Z,5.30
2018-03-20T12:42:52.511Z,5.40
2018-03-20T12:45:20.085Z,5.40
2018-03-20T12:47:47.606Z,5.30
2018-03-20T12:50:15.114Z,5.30
2018-03-20T12:52:42.639Z,5.30
2018-03-20T12:55:10.173Z,5.40
2018-03-20T12:57:37.798Z,5.50
2018-03-20T13:00:05.861Z,5.50
2018-03-20T13:02:33.450Z,5.50
2018-03-20T13:05:00.944Z,5.50
2018-03-20T13:07:28.415Z,5.50
2018-03-20T13:09:55.906Z,5.60
2018-03-20T13:12:23.453Z,5.60
2018-03-20T13:14:50.980Z,5.50
2018-03-20T13:17:18.480Z,5.40
2018-03-20T13:19:45.965Z,5.40
2018-03-20T13:22:13.530Z,5.50
2018-03-20T13:24:41.034Z,5.50
2018-03-20T13:27:08.537Z,5.60
2018-03-20T13:29:36.106Z,5.60
2018-03-20T13:32:03.888Z,5.60
2018-03-20T13:34:31.370Z,5.60
2018-03-20T13:36:58.862Z,5.70
2018-03-20T13:39:27.446Z,5.60
2018-03-20T13:41:54.987Z,5.70
2018-03-20T13:44:22.514Z,5.70
2018-03-20T13:46:50.050Z,5.70
2018-03-20T13:49:18.314Z,5.70
2018-03-20T13:51:45.831Z,5.70
2018-03-20T13:54:13.303Z,5.60
2018-03-20T13:56:40.804Z,5.70
2018-03-20T13:59:08.312Z,5.70
2018-03-20T14:01:35.939Z,5.70
2018-03-20T14:04:03.592Z,5.80
2018-03-20T14:06:31.099Z,5.70
2018-03-20T14:08:58.595Z,5.60
2018-03-20T14:11:26.157Z,5.60
2018-03-20T14:13:53.664Z,5.60
2018-03-20T14:16:21.216Z,5.60
2018-03-20T14:18:48.775Z,5.60
2018-03-20T14:21:16.258Z,5.70
2018-03-20T14:23:46.245Z,5.70
2018-03-20T14:26:13.833Z,5.70
2018-03-20T14:28:41.367Z,5.70
2018-03-20T14:31:08.872Z,5.70
2018-03-20T14:33:36.381Z,5.70
2018-03-20T14:36:04.159Z,5.60
2018-03-20T14:38:31.679Z,5.50
2018-03-20T14:40:59.180Z,5.50
2018-03-20T14:43:26.854Z,5.50
2018-03-20T14:45:54.451Z,5.50
2018-03-20T14:48:22.043Z,5.40
2018-03-20T14:50:49.606Z,5.40
2018-03-20T14:53:17.146Z,5.50
2018-03-20T14:55:44.633Z,5.40
2018-03-20T14:58:12.176Z,5.30
2018-03-20T15:00:39.697Z,5.30
2018-03-20T15:03:07.228Z,5.30
2018-03-20T15:05:34.809Z,5.30
2018-03-20T15:08:03.120Z,5.10
2018-03-20T15:10:30.659Z,5.10
2018-03-20T15:12:58.275Z,5.20
2018-03-20T15:15:27.343Z,5.10
2018-03-20T15:17:54.902Z,5.20
2018-03-20T15:20:22.408Z,5.20
2018-03-20T15:22:50.014Z,5.30
2018-03-20T15:25:17.576Z,5.20
2018-03-20T15:27:45.217Z,5.20
2018-03-20T15:30:12.695Z,5.30
2018-03-20T15:32:40.224Z,5.20
2018-03-20T15:35:08.485Z,5.20
2018-03-20T15:37:36.784Z,5.20
2018-03-20T15:40:04.343Z,5.20
2018-03-20T15:42:31.926Z,5.20
2018-03-20T15:44:59.558Z,5.10
2018-03-20T15:47:27.800Z,5.10
2018-03-20T15:49:55.356Z,5.10
2018-03-20T15:52:22.866Z,5.20
2018-03-20T15:54:50.353Z,5.10
2018-03-20T15:57:17.854Z,5.10
2018-03-20T15:59:45.784Z,5.00
2018-03-20T16:02:16.181Z,5.00
2018-03-20T16:04:43.708Z,5.10
2018-03-20T16:07:11.252Z,5.00
2018-03-20T16:09:38.777Z,5.00
2018-03-20T16:12:07.960Z,4.90
2018-03-20T16:14:35.480Z,4.90
2018-03-20T16:17:03.080Z,4.90
2018-03-20T16:19:30.626Z,4.80
2018-03-20T16:21:58.215Z,4.90
2018-03-20T16:24:26.621Z,4.80
2018-03-20T16:26:54.251Z,4.80
2018-03-20T16:29:21.768Z,4.70
2018-03-20T16:31:49.320Z,4.70
2018-03-20T16:34:16.848Z,4.60
2018-03-20T16:36:45.144Z,4.60
2018-03-20T16:39:12.664Z,4.60
2018-03-20T16:41:40.159Z,4.60
2018-03-20T16:44:08.559Z,4.50
2018-03-20T16:46:36.241Z,4.40
2018-03-20T16:49:03.748Z,4.40
2018-03-20T16:51:32.426Z,4.40
2018-03-20T16:54:00.478Z,4.40
2018-03-20T16:56:28.067Z,4.40
2018-03-20T16:58:56.516Z,4.40
2018-03-20T17:01:24.895Z,4.30
2018-03-20T17:03:52.519Z,4.40
2018-03-20T17:06:23.811Z,4.20
2018-03-20T17:08:51.391Z,4.20
2018-03-20T17:11:19.044Z,4.10
2018-03-20T17:13:46.779Z,4.10
2018-03-20T17:16:15.264Z,4.00
2018-03-20T17:18:42.886Z,4.00
2018-03-20T17:21:10.518Z,4.00
2018-03-20T17:23:39.548Z,3.90
2018-03-20T17:26:08.283Z,3.90
2018-03-20T17:28:41.425Z,3.80
2018-03-20T17:31:17.653Z,3.70
2018-03-20T17:33:46.370Z,3.80
2018-03-20T17:36:13.995Z,3.70
2018-03-20T17:38:42.648Z,3.70
2018-03-20T17:41:10.210Z,3.70
2018-03-20T17:43:37.773Z,3.60
2018-03-20T17:46:05.368Z,3.60
2018-03-20T17:48:32.980Z,3.60
2018-03-20T17:51:00.640Z,3.50
2018-03-20T17:53:28.381Z,3.40
2018-03-20T17:55:56.078Z,3.40
2018-03-20T17:58:23.597Z,3.40
2018-03-20T18:00:51.458Z,3.40
2018-03-20T18:03:18.988Z,3.30
2018-03-20T18:05:46.531Z,3.30
2018-03-20T18:08:14.023Z,3.30
2018-03-20T18:10:43.571Z,3.30
2018-03-20T18:13:11.161Z,3.20
2018-03-20T18:15:38.894Z,3.10
2018-03-20T18:18:06.520Z,3.10
2018-03-20T18:20:34.448Z,3.10
2018-03-20T18:23:02.552Z,3.10
2018-03-20T18:25:30.056Z,3.10
2018-03-20T18:27:57.635Z,3.10
2018-03-20T18:30:25.137Z,3.10
2018-03-20T18:32:52.702Z,3.00
2018-03-20T18:35:20.190Z,2.90
2018-03-20T18:37:47.663Z,2.80
2018-03-20T18:40:15.158Z,2.70
2018-03-20T18:42:42.636Z,2.70
2018-03-20T18:45:10.152Z,2.70
2018-03-20T18:47:38.438Z,2.60
2018-03-20T18:50:07.377Z,2.70
2018-03-20T18:52:35.734Z,2.60
2018-03-20T18:55:03.279Z,2.60
2018-03-20T18:57:30.945Z,2.60
2018-03-20T18:59:58.432Z,2.60
2018-03-20T19:02:26.100Z,2.60
2018-03-20T19:04:53.603Z,2.50
2018-03-20T19:07:21.947Z,2.30
2018-03-20T19:09:49.488Z,2.30
2018-03-20T19:12:16.984Z,2.20
2018-03-20T19:14:44.483Z,2.20
2018-03-20T19:17:12.965Z,2.20
2018-03-20T19:19:40.547Z,2.10
2018-03-20T19:22:08.071Z,2.00
2018-03-20T19:24:35.563Z,2.00
2018-03-20T19:27:03.057Z,1.90
2018-03-20T19:29:30.601Z,1.90
2018-03-20T19:31:58.141Z,1.80
2018-03-20T19:34:25.663Z,1.70
2018-03-20T19:36:53.235Z,1.70
2018-03-20T19:39:20.720Z,1.60
2018-03-20T19:41:48.195Z,1.60
2018-03-20T19:44:15.735Z,1.50
2018-03-20T19:46:43.308Z,1.50
2018-03-20T19:49:10.889Z,1.50
2018-03-20T19:51:38.395Z,1.40
2018-03-20T19:54:05.940Z,1.40
2018-03-20T19:56:33.540Z,1.30
2018-03-20T19:59:01.050Z,1.30
2018-03-20T20:01:28.688Z,1.30
2018-03-20T20:03:56.979Z,1.20
2018-03-20T20:06:25.252Z,1.10
2018-03-20T20:08:52.760Z,1.10
2018-03-20T20:11:20.262Z,1.10
2018-03-20T20:13:48.533Z,1.10
2018-03-20T20:16:16.831Z,1.00
2018-03-20T20:18:44.353Z,1.00
2018-03-20T20:21:11.952Z,1.00
2018-03-20T20:23:39.459Z,1.00
2018-03-20T20:26:06.943Z,1.00
2018-03-20T20:28:34.423Z,1.00
2018-03-20T20:31:01.914Z,1.00
2018-03-20T20:33:31.354Z,0.90
2018-03-20T20:35:58.941Z,0.90
2018-03-20T20:38:26.458Z,0.90
2018-03-20T20:40:53.992Z,0.80
2018-03-20T20:43:21.489Z,0.80
2018-03-20T20:45:49.069Z,0.80
2018-03-20T20:48:16.733Z,0.80
2018-03-20T20:50:44.238Z,0.80
2018-03-20T20:53:11.831Z,0.70
2018-03-20T20:55:39.346Z,0.70
2018-03-20T20:58:06.845Z,0.70
2018-03-20T21:00:35.092Z,0.70
2018-03-20T21:03:02.632Z,0.70
2018-03-20T21:05:30.223Z,0.60
2018-03-20T21:07:57.716Z,0.60
2018-03-20T21:10:25.223Z,0.60
2018-03-20T21:12:52.724Z,0.60
2018-03-20T21:15:20.964Z,0.50
2018-03-20T21:17:48.451Z,0.50
2018-03-20T21:20:16.696Z,0.50
2018-03-20T21:22:44.188Z,0.40
2018-03-20T21:25:11.699Z,0.40
2018-03-20T21:27:39.220Z,0.40
2018-03-20T21:30:07.628Z,0.40
2018-03-20T21:32:35.196Z,0.40
2018-03-20T21:35:02.755Z,0.30
2018-03-20T21:37:30.273Z,0.30
2018-03-20T21:39:58.540Z,0.20
2018-03-20T21:42:26.111Z,0.20
2018-03-20T21:44:53.611Z,0.20
2018-03-20T21:47:21.138Z,0.20
2018-03-20T21:49:48.627Z,0.20
2018-03-20T21:52:16.175Z,0.20
2018-03-20T21:54:45.648Z,0.10
2018-03-20T21:57:13.168Z,0.00
2018-03-20T21:59:40.655Z,0.00
2018-03-20T22:02:08.214Z,0.10
2018-03-20T22:04:35.773Z,0.10
2018-03-20T22:07:03.278Z,0.10
2018-03-20T22:09:30.736Z,0.10
2018-03-20T22:11:58.248Z,0.00
2018-03-20T22:14:27.286Z,0.00
2018-03-20T22:16:54.801Z,0.00
2018-03-20T22:19:22.368Z,0.00
2018-03-20T22:21:49.940Z,0.00
2018-03-20T22:24:17.471Z,0.00
2018-03-20T22:26:45.558Z,-0.10
2018-03-20T22:29:13.212Z,-0.10
2018-03-20T22:31:40.906Z,-0.10
2018-03-20T22:34:08.450Z,-0.10
2018-03-20T22:36:35.994Z,-0.10
2018-03-20T22:39:03.660Z,-0.20
2018-03-20T22:41:31.167Z,-0.10
2018-03-20T22:43:58.727Z,-0.20
2018-03-20T22:46:26.230Z,-0.20
2018-03-20T22:48:53.725Z,-0.20
2018-03-20T22:51:21.251Z,-0.30
2018-03-20T22:53:49.306Z,-0.30
2018-03-20T22:56:17.559Z,-0.30
2018-03-20T22:58:45.045Z,-0.30
2018-03-20T23:01:12.619Z,-0.40
2018-03-20T23:03:40.112Z,-0.40
2018-03-20T23:06:07.710Z,-0.40
2018-03-20T23:08:35.224Z,-0.40
2018-03-20T23:11:02.723Z,-0.40
2018-03-20T23:13:30.215Z,-0.40
2018-03-20T23:15:57.698Z,-0.40
2018-03-20T23:18:25.332Z,-0.40
2018-03-20T23:20:52.839Z,-0.50
2018-03-20T23:23:20.334Z,-0.50
2018-03-20T23:25:47.908Z,-0.50
2018-03-20T23:28:15.523Z,-0.50
2018-03-20T23:30:43.083Z,-0.50
2018-03-20T23:33:10.659Z,-0.50
2018-03-20T23:35:38.168Z,-0.60
2018-03-20T23:38:05.655Z,-0.60
2018-03-20T23:40:33.141Z,-0.60
2018-03-20T23:43:00.655Z,-0.60
2018-03-20T23:45:28.181Z,-0.60
2018-03-20T23:47:55.693Z,-0.60
2018-03-20T23:50:23.214Z,-0.60
2018-03-20T23:52:50.699Z,-0.70
2018-03-20T23:55:18.193Z,-0.70
2018-03-20T23:57:45.710Z,-0.70
